Enter the Airport ICAO Code

Search by Airport or City

Current Weather

LELC | Murcia–San Javier Airport

Murcia, Region of Murcia, Spain

Last Update 8 Minutes Ago

Mostly Cloudy Sky

Temperature of 09 ºC

Light Winds from West

Temperature

09 ºC

Dew Point Temperature

09 ºC

Relative Humidity

100 %

Wind Direction

West (270º, Without Significant Variations)

Wind Velocity

6 km/h (03 kt)

Gusts

None

Visibility

Reduced to 8.0 Kilometers

Sea Level Pressure

1010 hPa (Hectopascals)

Layers of Clouds

60% to 90% of Sky Covered from 549 mts (1800 ft) Above Ground Level.

METAR LELC 160730Z 27003KT 8000 BKN018 09/09 Q1010 NOSIG

Weather Forecast

LELC | Murcia–San Javier Airport

Murcia, Region of Murcia, Spain

Forecast valid for the next 22 Hours

In the next 2 hours it is expected the begining of:

Moderate Winds from NorthEast

In 10 to 12 hours it is expected the begining of:

Light to Moderate Winds from North

Maximum Temperature

18 ºC in 5 Hours

Minimum Temperature

07 ºC in 22 Hours

TAF LELC 160500Z 1606/1706 26004KT CAVOK TX18/1613Z TN07/1706Z PROB40 TEMPO 1606/1611 BKN012 BECMG 1608/1610 06010KT BECMG 1618/1620 34006KT